Terminal Aerodrome Forecast
Issued by NWS Sterling, VA

Current Version | Previous Version | Graphics & Text | Print | Product List | Glossary On
Versions: 1 2 3 4 5 6 7 8 9 10 11 12 13 14 15 16 17 18 19 20 21 22 23 24 25 26 27 28
000
FTUS41 KLWX 232000 AAA
TAFIAD
TAF AMD
KIAD 232055Z 2321/2424 17005KT P6SM -SNPL OVC060
     FM232300 15004KT 3SM -RASN OVC030
     FM240200 14004KT 2SM -RASNPL OVC015
     FM240500 06005KT 2SM -FZRAPL OVC008
     FM241400 34008KT 2SM -RASN OVC003
     FM241600 32008KT P6SM OVC010
     FM241900 30012G20KT P6SM BKN025=

USA.gov is the U.S. government's official web portal to all federal, state and local government web resources and services.